sensor_id;sensor_type;location;lat;lon;timestamp;pressure;altitude;pressure_sealevel;temperature;humidity
43691;BME280;29293;52.190;21.226;2024-02-21T00:09:18;100744.38;;;3.64;100.00
43691;BME280;29293;52.190;21.226;2024-02-21T00:24:25;100746.82;;;3.62;100.00
43691;BME280;29293;52.190;21.226;2024-02-21T00:39:32;100739.20;;;3.56;100.00
43691;BME280;29293;52.190;21.226;2024-02-21T00:54:39;100734.88;;;3.59;100.00
43691;BME280;29293;52.190;21.226;2024-02-21T01:09:46;100719.16;;;3.63;100.00
43691;BME280;29293;52.190;21.226;2024-02-21T01:24:52;100714.48;;;3.64;100.00
43691;BME280;29293;52.190;21.226;2024-02-21T01:39:59;100700.73;;;3.65;100.00
43691;BME280;29293;52.190;21.226;2024-02-21T01:55:09;100692.33;;;3.68;100.00
43691;BME280;29293;52.190;21.226;2024-02-21T02:10:20;100687.06;;;3.71;100.00
43691;BME280;29293;52.190;21.226;2024-02-21T02:25:25;100681.27;;;3.76;100.00
43691;BME280;29293;52.190;21.226;2024-02-21T02:40:33;100676.19;;;3.79;100.00
43691;BME280;29293;52.190;21.226;2024-02-21T02:55:40;100670.07;;;3.79;100.00
43691;BME280;29293;52.190;21.226;2024-02-21T03:10:48;100668.91;;;3.80;100.00
43691;BME280;29293;52.190;21.226;2024-02-21T03:25:54;100670.98;;;3.81;100.00
43691;BME280;29293;52.190;21.226;2024-02-21T03:41:01;100669.86;;;3.79;100.00
43691;BME280;29293;52.190;21.226;2024-02-21T03:56:09;100659.48;;;3.73;100.00
43691;BME280;29293;52.190;21.226;2024-02-21T04:11:16;100655.23;;;3.51;100.00
43691;BME280;29293;52.190;21.226;2024-02-21T04:26:24;100652.34;;;3.08;100.00
43691;BME280;29293;52.190;21.226;2024-02-21T04:41:31;100656.66;;;2.74;100.00
43691;BME280;29293;52.190;21.226;2024-02-21T04:56:38;100647.50;;;2.56;100.00
43691;BME280;29293;52.190;21.226;2024-02-21T05:11:45;100648.69;;;2.59;100.00
43691;BME280;29293;52.190;21.226;2024-02-21T05:26:53;100636.93;;;2.72;100.00
43691;BME280;29293;52.190;21.226;2024-02-21T05:42:00;100639.33;;;2.92;100.00
43691;BME280;29293;52.190;21.226;2024-02-21T05:57:08;100635.06;;;3.10;100.00
43691;BME280;29293;52.190;21.226;2024-02-21T06:12:14;100629.95;;;3.29;100.00
43691;BME280;29293;52.190;21.226;2024-02-21T06:27:20;100624.16;;;3.48;100.00
43691;BME280;29293;52.190;21.226;2024-02-21T06:42:27;100622.05;;;3.69;100.00
43691;BME280;29293;52.190;21.226;2024-02-21T06:57:35;100621.95;;;4.01;100.00
43691;BME280;29293;52.190;21.226;2024-02-21T07:12:42;100624.98;;;4.35;100.00
43691;BME280;29293;52.190;21.226;2024-02-21T07:27:49;100616.73;;;4.54;100.00
43691;BME280;29293;52.190;21.226;2024-02-21T07:42:56;100616.90;;;4.66;100.00
43691;BME280;29293;52.190;21.226;2024-02-21T07:58:03;100600.90;;;4.79;100.00
43691;BME280;29293;52.190;21.226;2024-02-21T08:13:10;100587.33;;;5.01;100.00
43691;BME280;29293;52.190;21.226;2024-02-21T08:28:17;100576.27;;;5.25;100.00
43691;BME280;29293;52.190;21.226;2024-02-21T08:43:24;100547.62;;;5.73;100.00
43691;BME280;29293;52.190;21.226;2024-02-21T08:58:31;100538.58;;;6.30;100.00
43691;BME280;29293;52.190;21.226;2024-02-21T09:13:39;100529.33;;;6.52;100.00
43691;BME280;29293;52.190;21.226;2024-02-21T09:28:46;100523.60;;;6.59;100.00
43691;BME280;29293;52.190;21.226;2024-02-21T09:43:53;100524.61;;;6.86;100.00
43691;BME280;29293;52.190;21.226;2024-02-21T09:59:02;100513.73;;;6.83;100.00
43691;BME280;29293;52.190;21.226;2024-02-21T10:14:11;100507.89;;;6.82;100.00
43691;BME280;29293;52.190;21.226;2024-02-21T10:29:20;100487.52;;;6.95;100.00
43691;BME280;29293;52.190;21.226;2024-02-21T10:44:28;100478.61;;;7.19;100.00
43691;BME280;29293;52.190;21.226;2024-02-21T10:59:34;100457.98;;;7.31;100.00
43691;BME280;29293;52.190;21.226;2024-02-21T11:14:44;100439.91;;;7.40;100.00
43691;BME280;29293;52.190;21.226;2024-02-21T11:29:57;100416.88;;;7.31;100.00
43691;BME280;29293;52.190;21.226;2024-02-21T11:45:06;100401.67;;;7.35;100.00
43691;BME280;29293;52.190;21.226;2024-02-21T12:00:16;100396.67;;;7.21;100.00
43691;BME280;29293;52.190;21.226;2024-02-21T12:15:25;100388.27;;;7.00;100.00
43691;BME280;29293;52.190;21.226;2024-02-21T12:30:32;100378.42;;;6.87;100.00
43691;BME280;29293;52.190;21.226;2024-02-21T12:45:40;100360.95;;;6.75;100.00
43691;BME280;29293;52.190;21.226;2024-02-21T13:00:47;100344.84;;;6.65;100.00
43691;BME280;29293;52.190;21.226;2024-02-21T13:15:55;100330.00;;;6.63;100.00
43691;BME280;29293;52.190;21.226;2024-02-21T13:31:02;100317.98;;;6.55;100.00
43691;BME280;29293;52.190;21.226;2024-02-21T13:46:09;100301.54;;;6.45;100.00
43691;BME280;29293;52.190;21.226;2024-02-21T14:01:16;100275.73;;;6.46;100.00
43691;BME280;29293;52.190;21.226;2024-02-21T14:16:24;100242.22;;;6.41;100.00
43691;BME280;29293;52.190;21.226;2024-02-21T14:31:32;100228.23;;;6.45;100.00
43691;BME280;29293;52.190;21.226;2024-02-21T14:46:39;100208.77;;;6.43;100.00
43691;BME280;29293;52.190;21.226;2024-02-21T15:01:46;100194.50;;;6.35;100.00
43691;BME280;29293;52.190;21.226;2024-02-21T15:16:54;100186.29;;;6.29;100.00
43691;BME280;29293;52.190;21.226;2024-02-21T15:32:00;100184.07;;;6.17;100.00
43691;BME280;29293;52.190;21.226;2024-02-21T15:47:07;100170.66;;;6.06;100.00
43691;BME280;29293;52.190;21.226;2024-02-21T16:02:14;100159.81;;;5.99;100.00
43691;BME280;29293;52.190;21.226;2024-02-21T16:17:21;100150.64;;;5.96;100.00
43691;BME280;29293;52.190;21.226;2024-02-21T16:32:28;100149.20;;;5.92;100.00
43691;BME280;29293;52.190;21.226;2024-02-21T16:47:36;100140.96;;;5.90;100.00
43691;BME280;29293;52.190;21.226;2024-02-21T17:02:43;100150.52;;;5.90;100.00
43691;BME280;29293;52.190;21.226;2024-02-21T17:17:51;100147.56;;;5.90;100.00
43691;BME280;29293;52.190;21.226;2024-02-21T17:32:58;100142.33;;;5.89;100.00
43691;BME280;29293;52.190;21.226;2024-02-21T17:48:06;100134.33;;;5.84;100.00
43691;BME280;29293;52.190;21.226;2024-02-21T18:03:13;100120.33;;;5.78;100.00
43691;BME280;29293;52.190;21.226;2024-02-21T18:18:22;100115.38;;;5.74;100.00
43691;BME280;29293;52.190;21.226;2024-02-21T18:33:29;100107.25;;;5.71;100.00
43691;BME280;29293;52.190;21.226;2024-02-21T18:48:46;100091.59;;;5.68;100.00
43691;BME280;29293;52.190;21.226;2024-02-21T19:04:03;100086.71;;;5.67;100.00
43691;BME280;29293;52.190;21.226;2024-02-21T19:19:10;100079.05;;;5.66;100.00
43691;BME280;29293;52.190;21.226;2024-02-21T19:34:17;100061.94;;;5.67;100.00
43691;BME280;29293;52.190;21.226;2024-02-21T19:49:25;100048.66;;;5.66;100.00
43691;BME280;29293;52.190;21.226;2024-02-21T20:04:32;100048.39;;;5.68;100.00
43691;BME280;29293;52.190;21.226;2024-02-21T20:19:39;100044.38;;;5.68;100.00
43691;BME280;29293;52.190;21.226;2024-02-21T20:34:47;100039.73;;;5.68;100.00
43691;BME280;29293;52.190;21.226;2024-02-21T20:49:54;100032.23;;;5.65;100.00
43691;BME280;29293;52.190;21.226;2024-02-21T21:05:03;100029.56;;;5.67;100.00
43691;BME280;29293;52.190;21.226;2024-02-21T21:20:11;100023.99;;;5.65;100.00
43691;BME280;29293;52.190;21.226;2024-02-21T21:35:18;100010.86;;;5.62;100.00
43691;BME280;29293;52.190;21.226;2024-02-21T21:50:25;99994.80;;;5.57;100.00
43691;BME280;29293;52.190;21.226;2024-02-21T22:05:32;99970.13;;;5.49;100.00
43691;BME280;29293;52.190;21.226;2024-02-21T22:20:39;99950.14;;;5.41;100.00
43691;BME280;29293;52.190;21.226;2024-02-21T22:35:46;99938.53;;;5.35;100.00
43691;BME280;29293;52.190;21.226;2024-02-21T22:50:53;99926.18;;;5.31;100.00
43691;BME280;29293;52.190;21.226;2024-02-21T23:06:01;99903.65;;;5.25;100.00
43691;BME280;29293;52.190;21.226;2024-02-21T23:21:12;99886.17;;;5.15;100.00
43691;BME280;29293;52.190;21.226;2024-02-21T23:42:13;99867.40;;;5.07;100.00
43691;BME280;29293;52.190;21.226;2024-02-21T23:57:25;99851.27;;;4.91;100.00
